sensor_id;sensor_type;location;lat;lon;timestamp;temperature;humidity
11379;DHT22;5744;59.392;16.748;2024-03-29T00:00:45;7.60;99.90
11379;DHT22;5744;59.392;16.748;2024-03-29T00:03:11;7.70;99.90
11379;DHT22;5744;59.392;16.748;2024-03-29T00:05:37;7.70;99.90
11379;DHT22;5744;59.392;16.748;2024-03-29T00:08:03;7.60;99.90
11379;DHT22;5744;59.392;16.748;2024-03-29T00:10:29;7.70;99.90
11379;DHT22;5744;59.392;16.748;2024-03-29T00:12:58;7.70;99.90
11379;DHT22;5744;59.392;16.748;2024-03-29T00:15:24;7.70;99.90
11379;DHT22;5744;59.392;16.748;2024-03-29T00:17:50;7.70;99.90
11379;DHT22;5744;59.392;16.748;2024-03-29T00:20:16;7.70;99.90
11379;DHT22;5744;59.392;16.748;2024-03-29T00:22:42;7.70;99.90
11379;DHT22;5744;59.392;16.748;2024-03-29T00:25:08;7.70;99.90
11379;DHT22;5744;59.392;16.748;2024-03-29T00:27:34;7.70;99.90
11379;DHT22;5744;59.392;16.748;2024-03-29T00:30:03;7.70;99.90
11379;DHT22;5744;59.392;16.748;2024-03-29T00:32:29;7.80;99.90
11379;DHT22;5744;59.392;16.748;2024-03-29T00:34:55;7.80;99.90
11379;DHT22;5744;59.392;16.748;2024-03-29T00:37:21;7.70;99.90
11379;DHT22;5744;59.392;16.748;2024-03-29T00:39:47;7.70;99.90
11379;DHT22;5744;59.392;16.748;2024-03-29T00:42:13;7.60;99.90
11379;DHT22;5744;59.392;16.748;2024-03-29T00:44:38;7.60;99.90
11379;DHT22;5744;59.392;16.748;2024-03-29T00:47:07;7.60;99.90
11379;DHT22;5744;59.392;16.748;2024-03-29T00:49:33;7.60;99.90
11379;DHT22;5744;59.392;16.748;2024-03-29T00:51:59;7.60;99.90
11379;DHT22;5744;59.392;16.748;2024-03-29T00:54:25;7.60;99.90
11379;DHT22;5744;59.392;16.748;2024-03-29T00:56:51;7.60;99.90
11379;DHT22;5744;59.392;16.748;2024-03-29T00:59:16;7.60;99.90
11379;DHT22;5744;59.392;16.748;2024-03-29T01:01:42;7.60;99.90
11379;DHT22;5744;59.392;16.748;2024-03-29T01:04:11;7.60;99.90
11379;DHT22;5744;59.392;16.748;2024-03-29T01:06:37;7.60;99.90
11379;DHT22;5744;59.392;16.748;2024-03-29T01:09:03;7.60;99.90
11379;DHT22;5744;59.392;16.748;2024-03-29T01:11:29;7.60;99.90
11379;DHT22;5744;59.392;16.748;2024-03-29T01:13:54;7.60;99.90
11379;DHT22;5744;59.392;16.748;2024-03-29T01:16:20;7.50;99.90
11379;DHT22;5744;59.392;16.748;2024-03-29T01:18:46;7.50;99.90
11379;DHT22;5744;59.392;16.748;2024-03-29T01:21:15;7.50;99.90
11379;DHT22;5744;59.392;16.748;2024-03-29T01:23:41;7.50;99.90
11379;DHT22;5744;59.392;16.748;2024-03-29T01:26:07;7.50;99.90
11379;DHT22;5744;59.392;16.748;2024-03-29T01:28:33;7.50;99.90
11379;DHT22;5744;59.392;16.748;2024-03-29T01:30:59;7.50;99.90
11379;DHT22;5744;59.392;16.748;2024-03-29T01:33:24;7.40;99.90
11379;DHT22;5744;59.392;16.748;2024-03-29T01:35:50;7.50;99.90
11379;DHT22;5744;59.392;16.748;2024-03-29T01:38:19;7.40;99.90
11379;DHT22;5744;59.392;16.748;2024-03-29T01:40:45;7.50;99.90
11379;DHT22;5744;59.392;16.748;2024-03-29T01:43:11;7.40;99.90
11379;DHT22;5744;59.392;16.748;2024-03-29T01:45:38;7.40;99.90
11379;DHT22;5744;59.392;16.748;2024-03-29T01:48:04;7.50;99.90
11379;DHT22;5744;59.392;16.748;2024-03-29T01:50:30;7.40;99.90
11379;DHT22;5744;59.392;16.748;2024-03-29T01:52:56;7.40;99.90
11379;DHT22;5744;59.392;16.748;2024-03-29T01:55:25;7.50;99.90
11379;DHT22;5744;59.392;16.748;2024-03-29T01:57:51;7.40;99.90
11379;DHT22;5744;59.392;16.748;2024-03-29T02:00:18;7.40;99.90
11379;DHT22;5744;59.392;16.748;2024-03-29T02:02:44;7.50;99.90
11379;DHT22;5744;59.392;16.748;2024-03-29T02:05:10;7.40;99.90
11379;DHT22;5744;59.392;16.748;2024-03-29T02:07:36;7.50;99.90
11379;DHT22;5744;59.392;16.748;2024-03-29T02:10:02;7.50;99.90
11379;DHT22;5744;59.392;16.748;2024-03-29T02:12:30;7.50;99.90
11379;DHT22;5744;59.392;16.748;2024-03-29T02:14:56;7.50;99.90
11379;DHT22;5744;59.392;16.748;2024-03-29T02:17:22;7.50;99.90
11379;DHT22;5744;59.392;16.748;2024-03-29T02:19:48;7.40;99.90
11379;DHT22;5744;59.392;16.748;2024-03-29T02:22:14;7.40;99.90
11379;DHT22;5744;59.392;16.748;2024-03-29T02:24:43;7.40;99.90
11379;DHT22;5744;59.392;16.748;2024-03-29T02:27:09;7.40;99.90
11379;DHT22;5744;59.392;16.748;2024-03-29T02:29:35;7.40;99.90
11379;DHT22;5744;59.392;16.748;2024-03-29T02:32:02;7.50;99.90
11379;DHT22;5744;59.392;16.748;2024-03-29T02:34:28;7.40;99.90
11379;DHT22;5744;59.392;16.748;2024-03-29T02:36:54;7.50;99.90
11379;DHT22;5744;59.392;16.748;2024-03-29T02:39:19;7.40;99.90
11379;DHT22;5744;59.392;16.748;2024-03-29T02:41:48;7.40;99.90
11379;DHT22;5744;59.392;16.748;2024-03-29T02:44:14;7.50;99.90
11379;DHT22;5744;59.392;16.748;2024-03-29T02:46:40;7.40;99.90
11379;DHT22;5744;59.392;16.748;2024-03-29T02:49:06;7.40;99.90
11379;DHT22;5744;59.392;16.748;2024-03-29T02:51:32;7.50;99.90
11379;DHT22;5744;59.392;16.748;2024-03-29T02:53:58;7.40;99.90
11379;DHT22;5744;59.392;16.748;2024-03-29T02:56:23;7.50;99.90
11379;DHT22;5744;59.392;16.748;2024-03-29T02:58:52;7.50;99.90
11379;DHT22;5744;59.392;16.748;2024-03-29T03:01:18;7.50;99.90
11379;DHT22;5744;59.392;16.748;2024-03-29T03:03:43;7.50;99.90
11379;DHT22;5744;59.392;16.748;2024-03-29T03:06:09;7.50;99.90
11379;DHT22;5744;59.392;16.748;2024-03-29T03:08:35;7.50;99.90
11379;DHT22;5744;59.392;16.748;2024-03-29T03:11:31;7.50;99.90
11379;DHT22;5744;59.392;16.748;2024-03-29T03:13:59;7.50;99.90
11379;DHT22;5744;59.392;16.748;2024-03-29T03:16:25;7.50;99.90
11379;DHT22;5744;59.392;16.748;2024-03-29T03:18:51;7.50;99.90
11379;DHT22;5744;59.392;16.748;2024-03-29T03:21:17;7.50;99.90
11379;DHT22;5744;59.392;16.748;2024-03-29T03:23:43;7.60;99.90
11379;DHT22;5744;59.392;16.748;2024-03-29T03:26:09;7.50;99.90
11379;DHT22;5744;59.392;16.748;2024-03-29T03:28:35;7.50;99.90
11379;DHT22;5744;59.392;16.748;2024-03-29T03:31:04;7.50;99.90
11379;DHT22;5744;59.392;16.748;2024-03-29T03:33:30;7.50;99.90
11379;DHT22;5744;59.392;16.748;2024-03-29T03:35:56;7.60;99.90
11379;DHT22;5744;59.392;16.748;2024-03-29T03:38:21;7.60;99.90
11379;DHT22;5744;59.392;16.748;2024-03-29T03:40:47;7.60;99.90
11379;DHT22;5744;59.392;16.748;2024-03-29T03:43:13;7.60;99.90
11379;DHT22;5744;59.392;16.748;2024-03-29T03:45:39;7.60;99.90
11379;DHT22;5744;59.392;16.748;2024-03-29T03:48:08;7.60;99.90
11379;DHT22;5744;59.392;16.748;2024-03-29T03:50:35;7.60;99.90
11379;DHT22;5744;59.392;16.748;2024-03-29T03:53:00;7.50;99.90
11379;DHT22;5744;59.392;16.748;2024-03-29T03:55:26;7.50;99.90
11379;DHT22;5744;59.392;16.748;2024-03-29T03:57:52;7.50;99.90
11379;DHT22;5744;59.392;16.748;2024-03-29T04:00:19;7.60;99.90
11379;DHT22;5744;59.392;16.748;2024-03-29T04:02:46;7.60;99.90
11379;DHT22;5744;59.392;16.748;2024-03-29T04:05:15;7.50;99.90
11379;DHT22;5744;59.392;16.748;2024-03-29T04:07:41;7.50;99.90
11379;DHT22;5744;59.392;16.748;2024-03-29T04:10:07;7.50;99.90
11379;DHT22;5744;59.392;16.748;2024-03-29T04:12:33;7.60;99.90
11379;DHT22;5744;59.392;16.748;2024-03-29T04:14:59;7.60;99.90
11379;DHT22;5744;59.392;16.748;2024-03-29T04:17:25;7.50;99.90
11379;DHT22;5744;59.392;16.748;2024-03-29T04:19:50;7.50;99.90
11379;DHT22;5744;59.392;16.748;2024-03-29T04:22:19;7.50;99.90
11379;DHT22;5744;59.392;16.748;2024-03-29T04:24:45;7.50;99.90
11379;DHT22;5744;59.392;16.748;2024-03-29T04:27:10;7.50;99.90
11379;DHT22;5744;59.392;16.748;2024-03-29T04:29:36;7.50;99.90
11379;DHT22;5744;59.392;16.748;2024-03-29T04:32:02;7.50;99.90
11379;DHT22;5744;59.392;16.748;2024-03-29T04:34:28;7.50;99.90
11379;DHT22;5744;59.392;16.748;2024-03-29T04:36:54;7.50;99.90
11379;DHT22;5744;59.392;16.748;2024-03-29T04:39:23;7.50;99.90
11379;DHT22;5744;59.392;16.748;2024-03-29T04:41:48;7.50;99.90
11379;DHT22;5744;59.392;16.748;2024-03-29T04:44:22;7.50;99.90
11379;DHT22;5744;59.392;16.748;2024-03-29T04:46:49;7.50;99.90
11379;DHT22;5744;59.392;16.748;2024-03-29T04:49:15;7.50;99.90
11379;DHT22;5744;59.392;16.748;2024-03-29T04:51:41;7.50;99.90
11379;DHT22;5744;59.392;16.748;2024-03-29T04:54:07;7.50;99.90
11379;DHT22;5744;59.392;16.748;2024-03-29T04:56:35;7.50;99.90
11379;DHT22;5744;59.392;16.748;2024-03-29T04:59:01;7.50;99.90
11379;DHT22;5744;59.392;16.748;2024-03-29T05:01:28;7.60;99.90
11379;DHT22;5744;59.392;16.748;2024-03-29T05:03:53;7.50;99.90
11379;DHT22;5744;59.392;16.748;2024-03-29T05:06:19;7.50;99.90
11379;DHT22;5744;59.392;16.748;2024-03-29T05:08:45;7.50;99.90
11379;DHT22;5744;59.392;16.748;2024-03-29T05:11:11;7.40;99.90
11379;DHT22;5744;59.392;16.748;2024-03-29T05:13:39;7.50;99.90
11379;DHT22;5744;59.392;16.748;2024-03-29T05:16:05;7.50;99.90
11379;DHT22;5744;59.392;16.748;2024-03-29T05:18:31;7.50;99.90
11379;DHT22;5744;59.392;16.748;2024-03-29T05:20:57;7.50;99.90
11379;DHT22;5744;59.392;16.748;2024-03-29T05:23:23;7.50;99.90
11379;DHT22;5744;59.392;16.748;2024-03-29T05:25:49;7.50;99.90
11379;DHT22;5744;59.392;16.748;2024-03-29T05:28:14;7.50;99.90
11379;DHT22;5744;59.392;16.748;2024-03-29T05:30:43;7.50;99.90
11379;DHT22;5744;59.392;16.748;2024-03-29T05:33:09;7.50;99.90
11379;DHT22;5744;59.392;16.748;2024-03-29T05:35:35;7.50;99.90
11379;DHT22;5744;59.392;16.748;2024-03-29T05:38:01;7.40;99.90
11379;DHT22;5744;59.392;16.748;2024-03-29T05:40:26;7.40;99.90
11379;DHT22;5744;59.392;16.748;2024-03-29T05:42:52;7.50;99.90
11379;DHT22;5744;59.392;16.748;2024-03-29T05:45:25;7.50;99.90
11379;DHT22;5744;59.392;16.748;2024-03-29T05:47:54;7.50;99.90
11379;DHT22;5744;59.392;16.748;2024-03-29T05:50:20;7.50;99.90
11379;DHT22;5744;59.392;16.748;2024-03-29T05:52:46;7.50;99.90
11379;DHT22;5744;59.392;16.748;2024-03-29T05:55:13;7.50;99.90
11379;DHT22;5744;59.392;16.748;2024-03-29T05:57:39;7.50;99.90
11379;DHT22;5744;59.392;16.748;2024-03-29T06:00:05;7.50;99.90
11379;DHT22;5744;59.392;16.748;2024-03-29T06:02:31;7.60;99.90
11379;DHT22;5744;59.392;16.748;2024-03-29T06:04:59;7.50;99.90
11379;DHT22;5744;59.392;16.748;2024-03-29T06:07:25;7.50;99.90
11379;DHT22;5744;59.392;16.748;2024-03-29T06:09:51;7.60;99.90
11379;DHT22;5744;59.392;16.748;2024-03-29T06:12:17;7.60;99.90
11379;DHT22;5744;59.392;16.748;2024-03-29T06:14:43;7.60;99.90
11379;DHT22;5744;59.392;16.748;2024-03-29T06:17:24;7.50;99.90
11379;DHT22;5744;59.392;16.748;2024-03-29T06:19:50;7.60;99.90
11379;DHT22;5744;59.392;16.748;2024-03-29T06:22:18;7.70;99.90
11379;DHT22;5744;59.392;16.748;2024-03-29T06:24:44;7.70;99.90
11379;DHT22;5744;59.392;16.748;2024-03-29T06:27:10;7.60;99.90
11379;DHT22;5744;59.392;16.748;2024-03-29T06:29:36;7.70;99.90
11379;DHT22;5744;59.392;16.748;2024-03-29T06:32:02;7.70;99.90
11379;DHT22;5744;59.392;16.748;2024-03-29T06:34:29;7.70;99.90
11379;DHT22;5744;59.392;16.748;2024-03-29T06:36:55;7.70;99.90
11379;DHT22;5744;59.392;16.748;2024-03-29T06:39:24;7.70;99.90
11379;DHT22;5744;59.392;16.748;2024-03-29T06:41:50;7.80;99.90
11379;DHT22;5744;59.392;16.748;2024-03-29T06:44:16;7.90;99.90
11379;DHT22;5744;59.392;16.748;2024-03-29T06:46:41;8.00;99.90
11379;DHT22;5744;59.392;16.748;2024-03-29T06:49:07;8.00;99.90
11379;DHT22;5744;59.392;16.748;2024-03-29T06:51:33;8.00;99.90
11379;DHT22;5744;59.392;16.748;2024-03-29T06:53:59;8.10;99.90
11379;DHT22;5744;59.392;16.748;2024-03-29T06:56:27;8.10;99.90
11379;DHT22;5744;59.392;16.748;2024-03-29T06:58:53;8.20;99.90
11379;DHT22;5744;59.392;16.748;2024-03-29T07:01:19;8.20;99.90
11379;DHT22;5744;59.392;16.748;2024-03-29T07:03:45;8.30;99.90
11379;DHT22;5744;59.392;16.748;2024-03-29T07:06:11;8.30;99.90
11379;DHT22;5744;59.392;16.748;2024-03-29T07:08:36;8.40;99.90
11379;DHT22;5744;59.392;16.748;2024-03-29T07:11:02;8.40;99.90
11379;DHT22;5744;59.392;16.748;2024-03-29T07:13:31;8.30;99.90
11379;DHT22;5744;59.392;16.748;2024-03-29T07:15:57;8.30;99.90
11379;DHT22;5744;59.392;16.748;2024-03-29T07:18:23;8.50;99.90
11379;DHT22;5744;59.392;16.748;2024-03-29T07:20:49;8.40;99.90
11379;DHT22;5744;59.392;16.748;2024-03-29T07:23:15;8.50;99.90
11379;DHT22;5744;59.392;16.748;2024-03-29T07:25:41;8.50;99.90
11379;DHT22;5744;59.392;16.748;2024-03-29T07:28:07;8.60;99.90
11379;DHT22;5744;59.392;16.748;2024-03-29T07:30:36;8.60;99.90
11379;DHT22;5744;59.392;16.748;2024-03-29T07:33:02;8.70;99.90
11379;DHT22;5744;59.392;16.748;2024-03-29T07:35:28;8.70;99.90
11379;DHT22;5744;59.392;16.748;2024-03-29T07:37:54;8.70;99.90
11379;DHT22;5744;59.392;16.748;2024-03-29T07:40:20;8.70;99.90
11379;DHT22;5744;59.392;16.748;2024-03-29T07:42:46;8.60;99.90
11379;DHT22;5744;59.392;16.748;2024-03-29T07:45:12;8.60;99.90
11379;DHT22;5744;59.392;16.748;2024-03-29T07:47:40;8.60;99.90
11379;DHT22;5744;59.392;16.748;2024-03-29T07:50:06;8.60;99.90
11379;DHT22;5744;59.392;16.748;2024-03-29T07:52:33;8.60;99.90
11379;DHT22;5744;59.392;16.748;2024-03-29T07:54:58;8.60;99.90
11379;DHT22;5744;59.392;16.748;2024-03-29T07:57:25;8.50;99.90
11379;DHT22;5744;59.392;16.748;2024-03-29T07:59:51;8.60;99.90
11379;DHT22;5744;59.392;16.748;2024-03-29T08:02:17;8.50;99.90
11379;DHT22;5744;59.392;16.748;2024-03-29T08:04:45;8.50;99.90
11379;DHT22;5744;59.392;16.748;2024-03-29T08:07:11;8.60;99.90
11379;DHT22;5744;59.392;16.748;2024-03-29T08:09:37;8.50;99.90
11379;DHT22;5744;59.392;16.748;2024-03-29T08:12:04;8.60;99.90
11379;DHT22;5744;59.392;16.748;2024-03-29T08:14:30;8.70;99.90
11379;DHT22;5744;59.392;16.748;2024-03-29T08:16:56;8.70;99.90
11379;DHT22;5744;59.392;16.748;2024-03-29T08:19:21;8.80;99.90
11379;DHT22;5744;59.392;16.748;2024-03-29T08:21:50;8.80;99.90
11379;DHT22;5744;59.392;16.748;2024-03-29T08:24:16;8.90;99.90
11379;DHT22;5744;59.392;16.748;2024-03-29T08:26:42;8.80;99.90
11379;DHT22;5744;59.392;16.748;2024-03-29T08:29:07;8.70;99.90
11379;DHT22;5744;59.392;16.748;2024-03-29T08:31:33;8.80;99.90
11379;DHT22;5744;59.392;16.748;2024-03-29T08:33:59;8.90;99.90
11379;DHT22;5744;59.392;16.748;2024-03-29T08:36:25;9.00;99.90
11379;DHT22;5744;59.392;16.748;2024-03-29T08:38:53;9.10;99.90
11379;DHT22;5744;59.392;16.748;2024-03-29T08:41:19;9.10;99.90
11379;DHT22;5744;59.392;16.748;2024-03-29T08:43:45;9.00;99.90
11379;DHT22;5744;59.392;16.748;2024-03-29T08:46:11;9.20;99.90
11379;DHT22;5744;59.392;16.748;2024-03-29T08:48:37;9.30;99.90
11379;DHT22;5744;59.392;16.748;2024-03-29T08:51:03;9.40;99.90
11379;DHT22;5744;59.392;16.748;2024-03-29T08:53:29;9.40;99.90
11379;DHT22;5744;59.392;16.748;2024-03-29T08:55:58;9.40;99.90
11379;DHT22;5744;59.392;16.748;2024-03-29T08:58:23;9.40;99.90
11379;DHT22;5744;59.392;16.748;2024-03-29T09:00:52;9.40;99.90
11379;DHT22;5744;59.392;16.748;2024-03-29T09:03:19;9.30;99.90
11379;DHT22;5744;59.392;16.748;2024-03-29T09:05:44;9.20;99.90
11379;DHT22;5744;59.392;16.748;2024-03-29T09:08:10;9.10;99.90
11379;DHT22;5744;59.392;16.748;2024-03-29T09:10:36;9.10;99.90
11379;DHT22;5744;59.392;16.748;2024-03-29T09:13:05;9.10;99.90
11379;DHT22;5744;59.392;16.748;2024-03-29T09:15:30;9.10;99.90
11379;DHT22;5744;59.392;16.748;2024-03-29T09:17:56;9.10;99.90
11379;DHT22;5744;59.392;16.748;2024-03-29T09:20:22;9.20;99.90
11379;DHT22;5744;59.392;16.748;2024-03-29T09:22:50;9.30;99.90
11379;DHT22;5744;59.392;16.748;2024-03-29T09:25:16;9.40;99.90
11379;DHT22;5744;59.392;16.748;2024-03-29T09:27:44;9.40;99.90
11379;DHT22;5744;59.392;16.748;2024-03-29T09:30:13;9.50;99.90
11379;DHT22;5744;59.392;16.748;2024-03-29T09:32:39;9.70;99.90
11379;DHT22;5744;59.392;16.748;2024-03-29T09:35:05;9.60;99.90
11379;DHT22;5744;59.392;16.748;2024-03-29T09:37:31;9.60;99.90
11379;DHT22;5744;59.392;16.748;2024-03-29T09:39:57;9.50;99.90
11379;DHT22;5744;59.392;16.748;2024-03-29T09:42:23;9.50;99.90
11379;DHT22;5744;59.392;16.748;2024-03-29T09:44:50;9.40;99.90
11379;DHT22;5744;59.392;16.748;2024-03-29T09:47:19;9.40;99.90
11379;DHT22;5744;59.392;16.748;2024-03-29T09:49:46;9.30;99.90
11379;DHT22;5744;59.392;16.748;2024-03-29T09:52:12;9.30;99.90
11379;DHT22;5744;59.392;16.748;2024-03-29T09:54:38;9.30;99.90
11379;DHT22;5744;59.392;16.748;2024-03-29T09:57:04;9.30;99.90
11379;DHT22;5744;59.392;16.748;2024-03-29T09:59:30;9.40;99.90
11379;DHT22;5744;59.392;16.748;2024-03-29T10:01:56;9.50;99.90
11379;DHT22;5744;59.392;16.748;2024-03-29T10:04:26;9.60;99.90
11379;DHT22;5744;59.392;16.748;2024-03-29T10:06:53;9.60;99.90
11379;DHT22;5744;59.392;16.748;2024-03-29T10:09:19;9.50;99.90
11379;DHT22;5744;59.392;16.748;2024-03-29T10:11:46;9.50;99.90
11379;DHT22;5744;59.392;16.748;2024-03-29T10:14:12;9.50;99.90
11379;DHT22;5744;59.392;16.748;2024-03-29T10:16:38;9.60;99.90
11379;DHT22;5744;59.392;16.748;2024-03-29T10:19:04;9.60;99.90
11379;DHT22;5744;59.392;16.748;2024-03-29T10:21:33;9.70;99.90
11379;DHT22;5744;59.392;16.748;2024-03-29T10:23:59;9.80;99.90
11379;DHT22;5744;59.392;16.748;2024-03-29T10:26:25;9.90;99.90
11379;DHT22;5744;59.392;16.748;2024-03-29T10:28:51;10.30;99.90
11379;DHT22;5744;59.392;16.748;2024-03-29T10:31:17;10.80;99.90
11379;DHT22;5744;59.392;16.748;2024-03-29T10:33:43;11.60;99.90
11379;DHT22;5744;59.392;16.748;2024-03-29T10:36:09;12.10;99.90
11379;DHT22;5744;59.392;16.748;2024-03-29T10:38:38;12.30;99.90
11379;DHT22;5744;59.392;16.748;2024-03-29T10:41:04;12.40;99.90
11379;DHT22;5744;59.392;16.748;2024-03-29T10:43:30;13.00;99.90
11379;DHT22;5744;59.392;16.748;2024-03-29T10:45:56;12.80;99.90
11379;DHT22;5744;59.392;16.748;2024-03-29T10:48:23;12.60;99.90
11379;DHT22;5744;59.392;16.748;2024-03-29T10:50:49;12.50;99.90
11379;DHT22;5744;59.392;16.748;2024-03-29T10:53:16;12.40;99.90
11379;DHT22;5744;59.392;16.748;2024-03-29T10:55:45;12.60;99.90
11379;DHT22;5744;59.392;16.748;2024-03-29T10:58:12;12.80;99.90
11379;DHT22;5744;59.392;16.748;2024-03-29T11:00:38;13.00;99.90
11379;DHT22;5744;59.392;16.748;2024-03-29T11:03:07;13.10;99.90
11379;DHT22;5744;59.392;16.748;2024-03-29T11:05:35;13.20;99.90
11379;DHT22;5744;59.392;16.748;2024-03-29T11:08:01;13.30;99.90
11379;DHT22;5744;59.392;16.748;2024-03-29T11:10:28;12.90;99.90
11379;DHT22;5744;59.392;16.748;2024-03-29T11:13:01;13.00;99.90
11379;DHT22;5744;59.392;16.748;2024-03-29T11:15:28;13.20;99.90
11379;DHT22;5744;59.392;16.748;2024-03-29T11:17:54;13.40;99.90
11379;DHT22;5744;59.392;16.748;2024-03-29T11:20:21;13.20;99.90
11379;DHT22;5744;59.392;16.748;2024-03-29T11:22:47;12.70;99.90
11379;DHT22;5744;59.392;16.748;2024-03-29T11:25:14;12.60;99.90
11379;DHT22;5744;59.392;16.748;2024-03-29T11:27:39;12.60;99.90
11379;DHT22;5744;59.392;16.748;2024-03-29T11:30:09;12.50;99.90
11379;DHT22;5744;59.392;16.748;2024-03-29T11:32:35;12.70;99.90
11379;DHT22;5744;59.392;16.748;2024-03-29T11:35:00;12.40;99.90
11379;DHT22;5744;59.392;16.748;2024-03-29T11:37:29;12.20;99.90
11379;DHT22;5744;59.392;16.748;2024-03-29T11:39:55;12.00;99.90
11379;DHT22;5744;59.392;16.748;2024-03-29T11:42:34;12.10;99.90
11379;DHT22;5744;59.392;16.748;2024-03-29T11:45:00;12.20;99.90
11379;DHT22;5744;59.392;16.748;2024-03-29T11:47:29;12.30;99.90
11379;DHT22;5744;59.392;16.748;2024-03-29T11:49:55;12.50;99.90
11379;DHT22;5744;59.392;16.748;2024-03-29T11:52:21;12.70;99.90
11379;DHT22;5744;59.392;16.748;2024-03-29T11:54:47;12.60;99.90
11379;DHT22;5744;59.392;16.748;2024-03-29T11:57:13;12.10;99.90
11379;DHT22;5744;59.392;16.748;2024-03-29T11:59:39;12.10;99.90
11379;DHT22;5744;59.392;16.748;2024-03-29T12:02:05;12.30;99.90
11379;DHT22;5744;59.392;16.748;2024-03-29T12:04:36;12.40;99.90
11379;DHT22;5744;59.392;16.748;2024-03-29T12:07:05;12.30;99.90
11379;DHT22;5744;59.392;16.748;2024-03-29T12:09:30;12.10;99.90
11379;DHT22;5744;59.392;16.748;2024-03-29T12:11:56;12.00;99.90
11379;DHT22;5744;59.392;16.748;2024-03-29T12:14:22;11.80;99.90
11379;DHT22;5744;59.392;16.748;2024-03-29T12:16:48;11.90;99.90
11379;DHT22;5744;59.392;16.748;2024-03-29T12:19:23;11.80;99.90
11379;DHT22;5744;59.392;16.748;2024-03-29T12:21:54;11.90;99.90
11379;DHT22;5744;59.392;16.748;2024-03-29T12:24:20;11.90;99.90
11379;DHT22;5744;59.392;16.748;2024-03-29T12:26:47;12.10;99.90
11379;DHT22;5744;59.392;16.748;2024-03-29T12:29:13;12.10;99.90
11379;DHT22;5744;59.392;16.748;2024-03-29T12:31:39;12.20;99.90
11379;DHT22;5744;59.392;16.748;2024-03-29T12:34:05;12.30;99.90
11379;DHT22;5744;59.392;16.748;2024-03-29T12:36:31;12.30;99.90
11379;DHT22;5744;59.392;16.748;2024-03-29T12:39:00;12.30;99.90
11379;DHT22;5744;59.392;16.748;2024-03-29T12:41:28;12.40;99.90
11379;DHT22;5744;59.392;16.748;2024-03-29T12:43:54;12.60;99.90
11379;DHT22;5744;59.392;16.748;2024-03-29T12:46:20;12.90;99.90
11379;DHT22;5744;59.392;16.748;2024-03-29T12:48:46;13.20;99.90
11379;DHT22;5744;59.392;16.748;2024-03-29T12:51:12;13.30;99.90
11379;DHT22;5744;59.392;16.748;2024-03-29T12:53:39;13.50;99.90
11379;DHT22;5744;59.392;16.748;2024-03-29T12:56:08;13.80;99.90
11379;DHT22;5744;59.392;16.748;2024-03-29T12:58:34;13.90;99.90
11379;DHT22;5744;59.392;16.748;2024-03-29T13:00:59;14.40;99.90
11379;DHT22;5744;59.392;16.748;2024-03-29T13:03:25;14.50;99.90
11379;DHT22;5744;59.392;16.748;2024-03-29T13:05:51;14.50;99.90
11379;DHT22;5744;59.392;16.748;2024-03-29T13:08:17;14.20;99.90
11379;DHT22;5744;59.392;16.748;2024-03-29T13:10:43;14.30;99.90
11379;DHT22;5744;59.392;16.748;2024-03-29T13:13:12;14.80;99.90
11379;DHT22;5744;59.392;16.748;2024-03-29T13:15:38;14.80;99.90
11379;DHT22;5744;59.392;16.748;2024-03-29T13:18:05;14.60;99.90
11379;DHT22;5744;59.392;16.748;2024-03-29T13:20:31;14.20;99.90
11379;DHT22;5744;59.392;16.748;2024-03-29T13:22:58;13.70;99.90
11379;DHT22;5744;59.392;16.748;2024-03-29T13:25:24;13.60;99.90
11379;DHT22;5744;59.392;16.748;2024-03-29T13:27:50;13.60;99.90
11379;DHT22;5744;59.392;16.748;2024-03-29T13:30:20;13.60;99.90
11379;DHT22;5744;59.392;16.748;2024-03-29T13:32:46;13.40;99.90
11379;DHT22;5744;59.392;16.748;2024-03-29T13:35:12;13.60;99.90
11379;DHT22;5744;59.392;16.748;2024-03-29T13:37:38;13.20;99.90
11379;DHT22;5744;59.392;16.748;2024-03-29T13:40:05;13.20;99.90
11379;DHT22;5744;59.392;16.748;2024-03-29T13:42:31;13.30;99.90
11379;DHT22;5744;59.392;16.748;2024-03-29T13:44:57;13.40;99.90
11379;DHT22;5744;59.392;16.748;2024-03-29T13:47:25;13.40;99.90
11379;DHT22;5744;59.392;16.748;2024-03-29T13:49:51;13.00;99.90
11379;DHT22;5744;59.392;16.748;2024-03-29T13:52:17;12.90;99.90
11379;DHT22;5744;59.392;16.748;2024-03-29T13:54:43;13.00;99.90
11379;DHT22;5744;59.392;16.748;2024-03-29T13:57:09;12.90;99.90
11379;DHT22;5744;59.392;16.748;2024-03-29T13:59:35;12.90;99.90
11379;DHT22;5744;59.392;16.748;2024-03-29T14:02:01;13.10;99.90
11379;DHT22;5744;59.392;16.748;2024-03-29T14:04:30;13.30;99.90
11379;DHT22;5744;59.392;16.748;2024-03-29T14:06:56;13.40;99.90
11379;DHT22;5744;59.392;16.748;2024-03-29T14:09:22;13.70;99.90
11379;DHT22;5744;59.392;16.748;2024-03-29T14:11:48;13.90;99.90
11379;DHT22;5744;59.392;16.748;2024-03-29T14:14:14;14.00;99.90
11379;DHT22;5744;59.392;16.748;2024-03-29T14:16:39;14.30;99.90
11379;DHT22;5744;59.392;16.748;2024-03-29T14:19:05;14.80;99.90
11379;DHT22;5744;59.392;16.748;2024-03-29T14:21:34;14.80;99.90
11379;DHT22;5744;59.392;16.748;2024-03-29T14:24:00;14.60;99.90
11379;DHT22;5744;59.392;16.748;2024-03-29T14:26:25;14.20;99.90
11379;DHT22;5744;59.392;16.748;2024-03-29T14:28:51;13.80;99.90
11379;DHT22;5744;59.392;16.748;2024-03-29T14:31:17;13.80;99.90
11379;DHT22;5744;59.392;16.748;2024-03-29T14:33:43;14.00;99.90
11379;DHT22;5744;59.392;16.748;2024-03-29T14:36:09;14.30;99.90
11379;DHT22;5744;59.392;16.748;2024-03-29T14:38:38;14.40;99.90
11379;DHT22;5744;59.392;16.748;2024-03-29T14:41:03;14.50;99.90
11379;DHT22;5744;59.392;16.748;2024-03-29T14:43:29;14.50;99.90
11379;DHT22;5744;59.392;16.748;2024-03-29T14:45:55;14.60;99.90
11379;DHT22;5744;59.392;16.748;2024-03-29T14:48:21;14.30;99.90
11379;DHT22;5744;59.392;16.748;2024-03-29T14:50:47;14.20;99.90
11379;DHT22;5744;59.392;16.748;2024-03-29T14:53:12;14.30;99.90
11379;DHT22;5744;59.392;16.748;2024-03-29T14:55:41;14.20;99.90
11379;DHT22;5744;59.392;16.748;2024-03-29T14:58:07;14.20;99.90
11379;DHT22;5744;59.392;16.748;2024-03-29T15:00:33;14.20;99.90
11379;DHT22;5744;59.392;16.748;2024-03-29T15:02:58;13.90;99.90
11379;DHT22;5744;59.392;16.748;2024-03-29T15:05:24;13.80;99.90
11379;DHT22;5744;59.392;16.748;2024-03-29T15:07:51;13.60;99.90
11379;DHT22;5744;59.392;16.748;2024-03-29T15:10:17;13.30;99.90
11379;DHT22;5744;59.392;16.748;2024-03-29T15:12:45;13.30;99.90
11379;DHT22;5744;59.392;16.748;2024-03-29T15:15:11;13.30;99.90
11379;DHT22;5744;59.392;16.748;2024-03-29T15:17:37;13.10;99.90
11379;DHT22;5744;59.392;16.748;2024-03-29T15:20:04;13.10;99.90
11379;DHT22;5744;59.392;16.748;2024-03-29T15:22:30;13.10;99.90
11379;DHT22;5744;59.392;16.748;2024-03-29T15:24:56;13.10;99.90
11379;DHT22;5744;59.392;16.748;2024-03-29T15:27:22;13.10;99.90
11379;DHT22;5744;59.392;16.748;2024-03-29T15:29:58;13.20;99.90
11379;DHT22;5744;59.392;16.748;2024-03-29T15:32:23;13.20;99.90
11379;DHT22;5744;59.392;16.748;2024-03-29T15:34:49;13.00;99.90